Terminal Aerodrome Forecast
Issued by NWS

Home | Current Version | Previous Version | Text Only | Print | Product List | Glossary On
Versions: 1 2 3 4 5 6 7 8 9 10 11 12 13 14 15 16 17 18 19 20 21 22 23 24 25 26 27 28 29 30 31
000
FTUS45 KFGZ 260823 AAE
TAFPRC
TAF AMD
KPRC 260823Z 2608/2706 35011KT P6SM VCSH BKN050
     FM261000 01011KT P6SM SCT060
     FM261800 02015G25KT P6SM FEW060
     FM270100 03015G25KT P6SM SKC=

USA.gov is the U.S. government's official web portal to all federal, state and local government web resources and services.